createdAt,value
2022-07-26T00:00:27.877Z,98124.50
2022-07-26T00:01:45.602Z,98124.17
2022-07-26T00:02:53.437Z,98125.98
2022-07-26T00:04:04.101Z,98126.85
2022-07-26T00:05:12.477Z,98128.25
2022-07-26T00:06:21.236Z,98138.11
2022-07-26T00:07:36.634Z,98137.52
2022-07-26T00:08:48.899Z,98136.48
2022-07-26T00:09:56.163Z,98144.98
2022-07-26T00:11:07.211Z,98145.53
2022-07-26T00:12:20.692Z,98150.95
2022-07-26T00:13:31.616Z,98150.98
2022-07-26T00:14:41.621Z,98152.86
2022-07-26T00:15:50.356Z,98152.55
2022-07-26T00:16:59.049Z,98153.82
2022-07-26T00:18:12.018Z,98153.48
2022-07-26T00:19:45.982Z,98152.67
2022-07-26T00:25:24.558Z,98162.37
2022-07-26T00:26:52.195Z,98165.50
2022-07-26T00:28:03.534Z,98163.73
2022-07-26T00:29:13.138Z,98162.91
2022-07-26T00:30:22.376Z,98166.69
2022-07-26T00:31:33.190Z,98167.77
2022-07-26T00:32:42.245Z,98169.77
2022-07-26T00:33:55.371Z,98168.00
2022-07-26T00:35:04.594Z,98173.30
2022-07-26T00:36:13.037Z,98171.73
2022-07-26T00:37:22.319Z,98171.54
2022-07-26T00:38:30.088Z,98172.80
2022-07-26T00:39:41.157Z,98173.14
2022-07-26T00:40:50.551Z,98171.88
2022-07-26T00:42:00.359Z,98172.66
2022-07-26T00:43:10.113Z,98174.18
2022-07-26T00:44:20.877Z,98179.17
2022-07-26T00:45:29.938Z,98180.28
2022-07-26T00:46:44.506Z,98182.44
2022-07-26T00:48:07.795Z,98180.92
2022-07-26T00:49:24.979Z,98180.85
2022-07-26T00:50:39.635Z,98181.45
2022-07-26T00:54:06.137Z,98183.45
2022-07-26T00:55:18.442Z,98184.84
2022-07-26T00:56:33.023Z,98181.65
2022-07-26T00:59:22.299Z,98182.48
2022-07-26T01:00:30.302Z,98188.87
2022-07-26T01:01:38.873Z,98183.89
2022-07-26T01:02:50.325Z,98185.94
2022-07-26T01:04:04.766Z,98190.61
2022-07-26T01:05:19.114Z,98190.50
2022-07-26T01:06:31.492Z,98192.17
2022-07-26T01:07:45.122Z,98193.79
2022-07-26T01:09:08.898Z,98190.64
2022-07-26T01:12:01.408Z,98190.86
2022-07-26T01:13:17.582Z,98188.77
2022-07-26T01:14:30.529Z,98188.19
2022-07-26T01:16:25.409Z,98187.66
2022-07-26T01:19:28.485Z,98193.42
2022-07-26T01:20:46.840Z,98195.72
2022-07-26T01:21:55.809Z,98196.06
2022-07-26T01:23:03.918Z,98195.08
2022-07-26T01:24:11.683Z,98200.21
2022-07-26T01:25:43.714Z,98195.86
2022-07-26T01:26:56.923Z,98196.98
2022-07-26T01:28:06.439Z,98200.36
2022-07-26T01:29:15.067Z,98199.09
2022-07-26T01:30:25.468Z,98194.41
2022-07-26T01:31:34.628Z,98194.63
2022-07-26T01:32:44.240Z,98192.38
2022-07-26T01:33:54.510Z,98191.59
2022-07-26T01:35:04.196Z,98189.05
2022-07-26T01:36:13.810Z,98188.92
2022-07-26T01:37:20.896Z,98193.02
2022-07-26T01:38:29.212Z,98194.51
2022-07-26T01:39:38.354Z,98196.01
2022-07-26T01:40:52.800Z,98195.46
2022-07-26T01:42:00.681Z,98198.27
2022-07-26T01:43:08.352Z,98196.17
2022-07-26T01:44:18.471Z,98199.95
2022-07-26T01:45:28.801Z,98201.38
2022-07-26T01:46:38.966Z,98205.11
2022-07-26T01:50:04.141Z,98208.08
2022-07-26T01:51:14.762Z,98209.36
2022-07-26T01:52:30.181Z,98211.29
2022-07-26T01:54:07.063Z,98206.23
2022-07-26T01:55:17.595Z,98212.54
2022-07-26T01:58:09.437Z,98208.59
2022-07-26T01:59:48.727Z,98206.46
2022-07-26T02:00:58.487Z,98204.58
2022-07-26T02:02:17.253Z,98208.14
2022-07-26T02:03:26.877Z,98206.83
2022-07-26T02:06:24.010Z,98212.29
2022-07-26T02:07:53.826Z,98216.28
2022-07-26T02:09:03.977Z,98219.63
2022-07-26T02:10:39.245Z,98216.44
2022-07-26T02:11:58.455Z,98219.77
2022-07-26T02:13:08.606Z,98225.20
2022-07-26T02:14:25.669Z,98226.38
2022-07-26T02:15:37.282Z,98229.61
2022-07-26T02:16:44.123Z,98232.13
2022-07-26T02:17:54.020Z,98227.08
2022-07-26T02:19:01.182Z,98227.23
2022-07-26T02:20:11.422Z,98225.62
2022-07-26T02:21:21.451Z,98230.67
2022-07-26T02:22:29.964Z,98236.45
2022-07-26T02:23:41.683Z,98238.27
2022-07-26T02:24:50.719Z,98241.58
2022-07-26T02:25:58.064Z,98243.27
2022-07-26T02:27:08.087Z,98251.05
2022-07-26T02:28:17.676Z,98250.13
2022-07-26T02:29:25.317Z,98248.92
2022-07-26T02:30:32.955Z,98251.36
2022-07-26T02:31:42.705Z,98249.13
2022-07-26T02:32:57.633Z,98248.69
2022-07-26T02:34:07.096Z,98248.57
2022-07-26T02:35:14.564Z,98253.33
2022-07-26T02:36:22.945Z,98253.13
2022-07-26T02:37:31.547Z,98255.38
2022-07-26T02:38:48.269Z,98254.55
2022-07-26T02:39:55.961Z,98264.50
2022-07-26T02:41:07.558Z,98261.27
2022-07-26T02:42:15.197Z,98262.76
2022-07-26T02:43:25.618Z,98261.23
2022-07-26T02:44:37.003Z,98258.27
2022-07-26T02:45:44.922Z,98258.61
2022-07-26T02:47:12.801Z,98256.34
2022-07-26T02:48:23.245Z,98256.72
2022-07-26T02:49:30.377Z,98256.58
2022-07-26T02:50:38.148Z,98260.46
2022-07-26T02:51:46.968Z,98263.77
2022-07-26T02:52:55.898Z,98265.36
2022-07-26T02:54:03.515Z,98264.98
2022-07-26T02:55:11.646Z,98264.14
2022-07-26T02:56:19.704Z,98266.19
2022-07-26T02:57:29.568Z,98268.02
2022-07-26T02:58:55.619Z,98270.10
2022-07-26T03:00:03.581Z,98274.23
2022-07-26T03:01:12.834Z,98273.40
2022-07-26T03:02:21.116Z,98274.39
2022-07-26T03:03:28.706Z,98278.66
2022-07-26T03:04:36.111Z,98281.00
2022-07-26T03:05:43.820Z,98283.34
2022-07-26T03:06:53.813Z,98285.29
2022-07-26T03:08:02.572Z,98290.44
2022-07-26T03:09:09.961Z,98293.43
2022-07-26T03:10:20.432Z,98297.20
2022-07-26T03:11:30.909Z,98296.85
2022-07-26T03:12:39.051Z,98300.56
2022-07-26T03:13:46.126Z,98300.75
2022-07-26T03:14:54.776Z,98300.21
2022-07-26T03:16:05.360Z,98302.39
2022-07-26T03:17:15.380Z,98307.38
2022-07-26T03:18:23.878Z,98309.34
2022-07-26T03:19:34.255Z,98312.20
2022-07-26T03:20:44.098Z,98314.46
2022-07-26T03:21:53.950Z,98320.67
2022-07-26T03:23:04.649Z,98324.02
2022-07-26T03:24:11.899Z,98328.58
2022-07-26T03:25:19.661Z,98328.39
2022-07-26T03:26:27.115Z,98332.88
2022-07-26T03:27:35.372Z,98338.58
2022-07-26T03:28:43.974Z,98344.09
2022-07-26T03:29:51.533Z,98338.23
2022-07-26T03:31:00.573Z,98339.23
2022-07-26T03:32:08.345Z,98338.51
2022-07-26T03:33:15.625Z,98338.59
2022-07-26T03:34:22.898Z,98336.98
2022-07-26T03:35:30.280Z,98337.49
2022-07-26T03:36:45.544Z,98338.35
2022-07-26T03:37:52.699Z,98343.21
2022-07-26T03:39:01.744Z,98342.80
2022-07-26T03:40:12.408Z,98341.17
2022-07-26T03:41:21.155Z,98341.52
2022-07-26T03:42:28.631Z,98340.17
2022-07-26T03:43:36.310Z,98334.52
2022-07-26T03:44:45.438Z,98337.30
2022-07-26T03:45:54.588Z,98335.41
2022-07-26T03:47:02.549Z,98337.18
2022-07-26T03:48:10.196Z,98342.83
2022-07-26T03:49:19.410Z,98343.39
2022-07-26T03:50:27.368Z,98350.07
2022-07-26T03:51:35.438Z,98350.08
2022-07-26T03:52:43.023Z,98355.96
2022-07-26T03:53:51.523Z,98355.89
2022-07-26T03:54:58.729Z,98360.19
2022-07-26T03:56:25.707Z,98356.62
2022-07-26T03:57:33.011Z,98357.63
2022-07-26T03:58:40.282Z,98360.84
2022-07-26T03:59:50.745Z,98364.62
2022-07-26T04:00:58.132Z,98372.06
2022-07-26T04:02:06.373Z,98378.13
2022-07-26T04:03:14.959Z,98377.70
2022-07-26T04:04:25.096Z,98385.05
2022-07-26T04:05:36.189Z,98387.09
2022-07-26T04:06:49.179Z,98386.30
2022-07-26T04:07:57.604Z,98387.64
2022-07-26T04:09:08.027Z,98390.55
2022-07-26T04:10:19.231Z,98390.31
2022-07-26T04:11:30.640Z,98389.11
2022-07-26T04:12:39.912Z,98394.84
2022-07-26T04:13:49.589Z,98399.48
2022-07-26T04:14:58.687Z,98397.64
2022-07-26T04:16:40.079Z,98402.46
2022-07-26T04:18:09.267Z,98405.21
2022-07-26T04:19:17.337Z,98406.02
2022-07-26T04:20:25.237Z,98411.47
2022-07-26T04:21:34.851Z,98414.58
2022-07-26T04:22:43.885Z,98418.81
2022-07-26T04:23:55.274Z,98422.16
2022-07-26T04:25:03.506Z,98426.52
2022-07-26T04:26:11.514Z,98426.94
2022-07-26T04:27:20.071Z,98429.52
2022-07-26T04:28:35.059Z,98429.56
2022-07-26T04:29:46.056Z,98430.02
2022-07-26T04:30:59.797Z,98428.39
2022-07-26T04:32:13.882Z,98426.16
2022-07-26T04:33:25.586Z,98424.79
2022-07-26T04:34:35.664Z,98429.71
2022-07-26T04:35:45.427Z,98430.74
2022-07-26T04:36:55.363Z,98433.88
2022-07-26T04:38:05.759Z,98433.92
2022-07-26T04:39:17.155Z,98436.70
2022-07-26T04:40:30.414Z,98436.28
2022-07-26T04:41:41.864Z,98434.54
2022-07-26T04:42:50.123Z,98432.27
2022-07-26T04:43:59.679Z,98438.02
2022-07-26T04:45:13.511Z,98438.25
2022-07-26T04:46:21.486Z,98441.44
2022-07-26T04:47:32.456Z,98444.42
2022-07-26T04:48:40.956Z,98444.31
2022-07-26T04:49:49.913Z,98441.63
2022-07-26T04:51:07.577Z,98446.66
2022-07-26T04:52:16.988Z,98447.45
2022-07-26T04:53:27.617Z,98449.00
2022-07-26T04:54:34.684Z,98450.28
2022-07-26T04:55:42.328Z,98454.15
2022-07-26T04:56:49.896Z,98457.13
2022-07-26T04:57:58.939Z,98462.98
2022-07-26T04:59:08.929Z,98463.86
2022-07-26T05:00:21.715Z,98468.34
2022-07-26T05:01:31.061Z,98471.33
2022-07-26T05:02:38.324Z,98476.30
2022-07-26T05:03:46.204Z,98478.66
2022-07-26T05:04:53.348Z,98479.83
2022-07-26T05:06:03.320Z,98479.96
2022-07-26T05:07:13.654Z,98483.17
2022-07-26T05:08:20.417Z,98484.68
2022-07-26T05:09:27.967Z,98482.30
2022-07-26T05:10:38.338Z,98482.98
2022-07-26T05:11:46.018Z,98484.56
2022-07-26T05:12:53.414Z,98484.44
2022-07-26T05:14:02.117Z,98490.27
2022-07-26T05:15:14.069Z,98486.79
2022-07-26T05:16:22.036Z,98488.65
2022-07-26T05:17:30.039Z,98486.16
2022-07-26T05:18:43.829Z,98489.41
2022-07-26T05:20:02.995Z,98492.58
2022-07-26T05:21:14.785Z,98492.34
2022-07-26T05:22:24.938Z,98492.73
2022-07-26T05:23:35.710Z,98494.46
2022-07-26T05:24:46.713Z,98497.24
2022-07-26T05:25:55.102Z,98495.50
2022-07-26T05:27:03.629Z,98494.75
2022-07-26T05:28:10.787Z,98496.95
2022-07-26T05:29:18.081Z,98493.63
2022-07-26T05:30:26.050Z,98491.81
2022-07-26T05:31:33.094Z,98495.33
2022-07-26T05:32:41.255Z,98493.98
2022-07-26T05:33:49.456Z,98498.35
2022-07-26T05:34:57.201Z,98498.52
2022-07-26T05:36:05.284Z,98500.23
2022-07-26T05:37:13.471Z,98499.83
2022-07-26T05:38:22.101Z,98498.97
2022-07-26T05:39:32.429Z,98501.88
2022-07-26T05:40:45.918Z,98501.97
2022-07-26T05:41:58.045Z,98501.13
2022-07-26T05:43:08.386Z,98505.36
2022-07-26T05:44:16.786Z,98504.63
2022-07-26T05:45:29.280Z,98502.11
2022-07-26T05:46:39.630Z,98498.96
2022-07-26T05:47:47.118Z,98496.02
2022-07-26T05:48:57.062Z,98497.19
2022-07-26T05:50:06.577Z,98496.45
2022-07-26T05:51:13.959Z,98497.94
2022-07-26T05:52:22.822Z,98497.61
2022-07-26T05:53:32.642Z,98496.28
2022-07-26T05:54:40.262Z,98501.73
2022-07-26T05:55:47.575Z,98504.52
2022-07-26T05:56:54.508Z,98503.19
2022-07-26T05:58:03.653Z,98501.25
2022-07-26T05:59:14.461Z,98501.51
2022-07-26T06:00:22.264Z,98503.81
2022-07-26T06:01:34.054Z,98501.42
2022-07-26T06:02:43.784Z,98499.61
2022-07-26T06:03:53.741Z,98501.95
2022-07-26T06:05:03.921Z,98505.25
2022-07-26T06:06:13.013Z,98508.03
2022-07-26T06:07:23.628Z,98509.26
2022-07-26T06:08:33.847Z,98510.83
2022-07-26T06:09:41.004Z,98512.08
2022-07-26T06:10:51.326Z,98510.66
2022-07-26T06:11:59.661Z,98512.36
2022-07-26T06:13:07.386Z,98514.00
2022-07-26T06:14:18.524Z,98518.93
2022-07-26T06:15:28.488Z,98518.98
2022-07-26T06:16:37.109Z,98518.80
2022-07-26T06:17:46.298Z,98516.46
2022-07-26T06:18:55.019Z,98516.39
2022-07-26T06:20:02.517Z,98514.29
2022-07-26T06:21:10.184Z,98512.71
2022-07-26T06:22:19.078Z,98507.68
2022-07-26T06:23:34.262Z,98505.92
2022-07-26T06:24:46.308Z,98505.47
2022-07-26T06:25:56.999Z,98504.87
2022-07-26T06:27:06.143Z,98507.25
2022-07-26T06:28:14.022Z,98505.89
2022-07-26T06:29:24.392Z,98504.50
2022-07-26T06:30:40.312Z,98505.66
2022-07-26T06:31:49.598Z,98503.89
2022-07-26T06:32:59.774Z,98502.48
2022-07-26T06:34:10.029Z,98501.11
2022-07-26T06:35:21.307Z,98498.84
2022-07-26T06:36:30.797Z,98498.40
2022-07-26T06:37:41.787Z,98504.63
2022-07-26T06:38:49.549Z,98505.56
2022-07-26T06:39:56.387Z,98505.88
2022-07-26T06:41:04.461Z,98510.65
2022-07-26T06:42:11.652Z,98514.66
2022-07-26T06:43:19.843Z,98508.10
2022-07-26T06:44:27.488Z,98512.21
2022-07-26T06:45:35.325Z,98513.27
2022-07-26T06:46:42.984Z,98511.96
2022-07-26T06:47:51.714Z,98515.40
2022-07-26T06:49:02.035Z,98515.28
2022-07-26T06:50:09.668Z,98517.54
2022-07-26T06:51:17.340Z,98519.71
2022-07-26T06:52:25.692Z,98514.98
2022-07-26T06:53:32.829Z,98515.80
2022-07-26T06:54:40.179Z,98517.94
2022-07-26T06:55:50.386Z,98518.77
2022-07-26T06:56:57.746Z,98521.31
2022-07-26T06:58:05.149Z,98521.11
2022-07-26T06:59:13.721Z,98526.61
2022-07-26T07:00:21.296Z,98531.87
2022-07-26T07:01:57.745Z,98530.89
2022-07-26T07:02:57.253Z,98533.23
2022-07-26T07:04:04.642Z,98536.05
2022-07-26T07:05:13.181Z,98537.50
2022-07-26T07:06:21.058Z,98536.77
2022-07-26T07:07:29.886Z,98534.05
2022-07-26T07:08:38.727Z,98529.71
2022-07-26T07:09:49.020Z,98523.61
2022-07-26T07:10:58.203Z,98521.83
2022-07-26T07:12:09.715Z,98521.27
2022-07-26T07:13:18.129Z,98518.04
2022-07-26T07:14:25.409Z,98519.23
2022-07-26T07:15:32.445Z,98520.64
2022-07-26T07:16:40.444Z,98521.58
2022-07-26T07:17:48.296Z,98519.75
2022-07-26T07:18:58.528Z,98521.13
2022-07-26T07:20:06.705Z,98523.95
2022-07-26T07:21:14.388Z,98522.41
2022-07-26T07:22:21.867Z,98521.00
2022-07-26T07:23:30.655Z,98520.19
2022-07-26T07:24:41.218Z,98523.93
2022-07-26T07:25:51.505Z,98525.55
2022-07-26T07:27:02.614Z,98527.66
2022-07-26T07:28:11.251Z,98527.53
2022-07-26T07:29:18.858Z,98528.95
2022-07-26T07:30:29.174Z,98530.65
2022-07-26T07:31:48.589Z,98531.35
2022-07-26T07:32:57.671Z,98532.36
2022-07-26T07:34:08.213Z,98529.45
2022-07-26T07:35:16.183Z,98529.79
2022-07-26T07:36:27.263Z,98527.09
2022-07-26T07:37:52.223Z,98528.19
2022-07-26T07:39:06.703Z,98526.36
2022-07-26T07:40:18.324Z,98528.89
2022-07-26T07:41:27.164Z,98527.16
2022-07-26T07:42:35.882Z,98528.45
2022-07-26T07:43:44.749Z,98525.83
2022-07-26T07:44:55.670Z,98525.17
2022-07-26T07:46:06.019Z,98521.53
2022-07-26T07:47:13.779Z,98522.44
2022-07-26T07:48:24.024Z,98518.36
2022-07-26T07:49:31.386Z,98517.86
2022-07-26T07:50:38.952Z,98517.75
2022-07-26T07:51:46.144Z,98516.65
2022-07-26T07:52:54.567Z,98518.85
2022-07-26T07:54:05.441Z,98519.06
2022-07-26T07:55:36.609Z,98517.65
2022-07-26T07:56:43.302Z,98518.20
2022-07-26T07:57:53.552Z,98516.81
2022-07-26T07:59:00.661Z,98516.33
2022-07-26T08:00:09.449Z,98513.05
2022-07-26T08:01:19.559Z,98513.30
2022-07-26T08:02:26.871Z,98514.23
2022-07-26T08:03:38.692Z,98517.00
2022-07-26T08:04:50.053Z,98521.20
2022-07-26T08:06:01.405Z,98523.93
2022-07-26T08:07:08.717Z,98527.08
2022-07-26T08:08:18.220Z,98525.48
2022-07-26T08:09:28.716Z,98526.96
2022-07-26T08:10:41.833Z,98525.70
2022-07-26T08:12:01.253Z,98523.42
2022-07-26T08:13:09.272Z,98527.50
2022-07-26T08:14:18.422Z,98524.83
2022-07-26T08:15:25.924Z,98524.44
2022-07-26T08:16:34.029Z,98526.41
2022-07-26T08:17:42.316Z,98525.52
2022-07-26T08:18:57.663Z,98526.58
2022-07-26T08:20:06.217Z,98529.52
2022-07-26T08:21:18.889Z,98529.93
2022-07-26T08:22:26.001Z,98528.36
2022-07-26T08:23:33.678Z,98529.73
2022-07-26T08:24:40.950Z,98527.27
2022-07-26T08:25:56.013Z,98526.98
2022-07-26T08:27:04.831Z,98523.79
2022-07-26T08:28:30.815Z,98523.02
2022-07-26T08:29:43.100Z,98523.75
2022-07-26T08:30:50.904Z,98524.19
2022-07-26T08:31:58.835Z,98525.16
2022-07-26T08:33:06.161Z,98527.71
2022-07-26T08:34:13.540Z,98527.92
2022-07-26T08:35:23.065Z,98531.30
2022-07-26T08:36:32.633Z,98529.56
2022-07-26T08:37:44.063Z,98531.34
2022-07-26T08:38:51.486Z,98530.15
2022-07-26T08:39:59.910Z,98528.61
2022-07-26T08:41:08.616Z,98530.33
2022-07-26T08:42:22.366Z,98528.58
2022-07-26T08:43:31.419Z,98528.70
2022-07-26T08:44:51.994Z,98530.71
2022-07-26T08:46:06.603Z,98527.13
2022-07-26T08:47:18.446Z,98525.64
2022-07-26T08:48:43.391Z,98525.08
2022-07-26T08:49:52.234Z,98524.30
2022-07-26T08:51:01.371Z,98524.70
2022-07-26T08:52:10.521Z,98522.80
2022-07-26T08:53:19.197Z,98522.61
2022-07-26T08:54:28.411Z,98516.75
2022-07-26T08:55:56.852Z,98517.20
2022-07-26T08:57:03.431Z,98521.07
2022-07-26T08:58:11.084Z,98520.41
2022-07-26T08:59:23.265Z,98516.79
2022-07-26T09:00:34.579Z,98514.33
2022-07-26T09:01:54.349Z,98517.56
2022-07-26T09:03:02.316Z,98510.61
2022-07-26T09:04:33.271Z,98514.29
2022-07-26T09:05:42.834Z,98514.08
2022-07-26T09:07:01.539Z,98512.40
2022-07-26T09:08:31.133Z,98512.56
2022-07-26T09:09:39.838Z,98514.02
2022-07-26T09:10:47.394Z,98512.08
2022-07-26T09:11:54.351Z,98511.73
2022-07-26T09:13:03.597Z,98510.69
2022-07-26T09:14:11.164Z,98510.60
2022-07-26T09:15:28.542Z,98510.10
2022-07-26T09:16:39.570Z,98509.86
2022-07-26T09:17:48.998Z,98511.88
2022-07-26T09:18:58.673Z,98513.72
2022-07-26T09:20:28.012Z,98515.40
2022-07-26T09:21:39.524Z,98518.86
2022-07-26T09:23:08.277Z,98519.75
2022-07-26T09:24:47.919Z,98522.29
2022-07-26T09:25:56.409Z,98520.95
2022-07-26T09:27:04.590Z,98518.42
2022-07-26T09:28:31.950Z,98516.40
2022-07-26T09:29:53.757Z,98519.20
2022-07-26T09:31:05.170Z,98517.89
2022-07-26T09:32:18.710Z,98519.35
2022-07-26T09:33:26.644Z,98517.70
2022-07-26T09:34:36.115Z,98517.55
2022-07-26T09:35:50.583Z,98514.63
2022-07-26T09:37:01.720Z,98514.31
2022-07-26T09:38:16.450Z,98514.02
2022-07-26T09:39:33.957Z,98511.36
2022-07-26T09:40:50.372Z,98508.99
2022-07-26T09:42:24.967Z,98505.84
2022-07-26T09:43:29.421Z,98500.19
2022-07-26T09:44:38.001Z,98498.54
2022-07-26T09:46:06.680Z,98495.10
2022-07-26T09:47:15.598Z,98495.50
2022-07-26T09:48:52.368Z,98497.35
2022-07-26T09:50:19.721Z,98497.91
2022-07-26T09:51:47.946Z,98498.05
2022-07-26T09:53:12.880Z,98497.09
2022-07-26T09:54:38.640Z,98493.30
2022-07-26T09:55:53.793Z,98492.02
2022-07-26T09:57:00.898Z,98491.73
2022-07-26T09:58:09.534Z,98491.49
2022-07-26T09:59:19.474Z,98493.27
2022-07-26T10:00:28.566Z,98496.73
2022-07-26T10:01:35.771Z,98496.55
2022-07-26T10:02:42.872Z,98498.90
2022-07-26T10:03:52.455Z,98501.89
2022-07-26T10:04:59.772Z,98500.09
2022-07-26T10:06:09.992Z,98500.91
2022-07-26T10:07:20.554Z,98500.88
2022-07-26T10:08:28.263Z,98500.88
2022-07-26T10:09:59.652Z,98502.66
2022-07-26T10:11:09.288Z,98499.74
2022-07-26T10:12:18.818Z,98501.12
2022-07-26T10:13:26.161Z,98499.22
2022-07-26T10:14:36.699Z,98503.42
2022-07-26T10:15:48.464Z,98505.48
2022-07-26T10:16:58.503Z,98502.81
2022-07-26T10:18:07.887Z,98508.14
2022-07-26T10:19:45.520Z,98508.67
2022-07-26T10:20:58.696Z,98508.63
2022-07-26T10:22:27.596Z,98509.27
2022-07-26T10:24:06.335Z,98512.77
2022-07-26T10:25:20.369Z,98513.96
2022-07-26T10:26:38.351Z,98510.09
2022-07-26T10:27:52.705Z,98513.03
2022-07-26T10:29:18.816Z,98514.44
2022-07-26T10:30:34.146Z,98516.66
2022-07-26T10:31:44.447Z,98519.65
2022-07-26T10:33:06.045Z,98520.34
2022-07-26T10:34:13.837Z,98519.77
2022-07-26T10:35:45.990Z,98517.44
2022-07-26T10:37:00.174Z,98518.78
2022-07-26T10:38:14.354Z,98515.99
2022-07-26T10:39:21.950Z,98513.71
2022-07-26T10:40:32.792Z,98513.59
2022-07-26T10:41:46.688Z,98513.67
2022-07-26T10:42:55.061Z,98513.67
2022-07-26T10:44:22.743Z,98511.02
2022-07-26T10:45:31.306Z,98511.48
2022-07-26T10:47:05.576Z,98513.40
2022-07-26T10:48:19.824Z,98512.79
2022-07-26T10:49:34.369Z,98515.09
2022-07-26T10:50:47.497Z,98516.30
2022-07-26T10:52:06.313Z,98513.07
2022-07-26T10:53:18.516Z,98513.27
2022-07-26T10:54:25.951Z,98511.49
2022-07-26T10:55:33.468Z,98511.70
2022-07-26T10:56:41.058Z,98512.39
2022-07-26T10:57:50.083Z,98516.21
2022-07-26T10:59:01.258Z,98518.67
2022-07-26T11:00:25.328Z,98518.11
2022-07-26T11:01:40.409Z,98516.95
2022-07-26T11:02:51.706Z,98517.02
2022-07-26T11:04:00.101Z,98518.84
2022-07-26T11:05:18.516Z,98518.39
2022-07-26T11:06:28.771Z,98515.75
2022-07-26T11:07:36.143Z,98518.11
2022-07-26T11:08:47.897Z,98513.92
2022-07-26T11:09:59.496Z,98513.98
2022-07-26T11:11:07.196Z,98511.09
2022-07-26T11:12:24.180Z,98514.04
2022-07-26T11:13:34.442Z,98511.67
2022-07-26T11:14:45.042Z,98510.45
2022-07-26T11:16:07.344Z,98511.54
2022-07-26T11:17:27.764Z,98512.11
2022-07-26T11:18:39.219Z,98512.71
2022-07-26T11:19:46.852Z,98514.00
2022-07-26T11:20:57.216Z,98512.30
2022-07-26T11:22:04.683Z,98516.39
2022-07-26T11:23:31.416Z,98519.36
2022-07-26T11:24:42.550Z,98521.66
2022-07-26T11:26:15.163Z,98521.58
2022-07-26T11:27:22.444Z,98519.34
2022-07-26T11:28:32.715Z,98517.11
2022-07-26T11:29:41.674Z,98514.58
2022-07-26T11:31:01.117Z,98511.73
2022-07-26T11:32:25.328Z,98512.21
2022-07-26T11:33:43.932Z,98511.04
2022-07-26T11:35:01.590Z,98511.96
2022-07-26T11:36:11.790Z,98511.91
2022-07-26T11:37:19.371Z,98510.61
2022-07-26T11:38:46.411Z,98505.96
2022-07-26T11:39:54.095Z,98502.31
2022-07-26T11:41:01.483Z,98499.45
2022-07-26T11:42:18.217Z,98496.47
2022-07-26T11:43:25.414Z,98497.94
2022-07-26T11:44:32.602Z,98501.29
2022-07-26T11:45:42.713Z,98500.79
2022-07-26T11:46:53.291Z,98499.00
2022-07-26T11:48:03.179Z,98501.73
2022-07-26T11:50:00.233Z,98496.77
2022-07-26T11:51:21.531Z,98496.52
2022-07-26T11:52:33.330Z,98502.70
2022-07-26T11:53:43.601Z,98502.38
2022-07-26T11:54:56.787Z,98505.36
2022-07-26T11:56:20.458Z,98505.19
2022-07-26T11:57:33.720Z,98505.63
2022-07-26T11:58:44.705Z,98504.55
2022-07-26T11:59:52.525Z,98501.68
2022-07-26T12:01:00.968Z,98503.58
2022-07-26T12:02:10.684Z,98502.30
2022-07-26T12:03:17.927Z,98501.31
2022-07-26T12:04:32.744Z,98505.20
2022-07-26T12:05:39.943Z,98506.19
2022-07-26T12:06:48.414Z,98505.35
2022-07-26T12:08:06.512Z,98507.77
2022-07-26T12:09:14.029Z,98506.81
2022-07-26T12:10:21.516Z,98506.59
2022-07-26T12:11:40.265Z,98506.07
2022-07-26T12:12:47.649Z,98506.79
2022-07-26T12:14:04.616Z,98503.97
2022-07-26T12:15:11.999Z,98505.27
2022-07-26T12:16:47.483Z,98500.34
2022-07-26T12:18:02.265Z,98499.60
2022-07-26T12:19:11.204Z,98499.18
2022-07-26T12:20:19.740Z,98500.37
2022-07-26T12:21:45.774Z,98499.83
2022-07-26T12:23:06.249Z,98500.27
2022-07-26T12:24:36.350Z,98501.29
2022-07-26T12:25:44.907Z,98500.02
2022-07-26T12:27:16.293Z,98496.55
2022-07-26T12:28:44.114Z,98498.58
2022-07-26T12:30:13.008Z,98496.29
2022-07-26T12:31:31.357Z,98498.50
2022-07-26T12:32:45.633Z,98497.21
2022-07-26T12:33:55.152Z,98498.79
2022-07-26T12:35:07.610Z,98504.17
2022-07-26T12:36:27.803Z,98506.20
2022-07-26T12:37:40.828Z,98510.70
2022-07-26T12:38:49.677Z,98514.36
2022-07-26T12:40:10.789Z,98515.61
2022-07-26T12:41:45.334Z,98519.16
2022-07-26T12:43:03.080Z,98522.42
2022-07-26T12:44:13.858Z,98523.34
2022-07-26T12:45:24.751Z,98527.04
2022-07-26T12:46:34.866Z,98526.59
2022-07-26T12:47:44.045Z,98526.21
2022-07-26T12:48:52.683Z,98528.34
2022-07-26T12:50:02.679Z,98527.83
2022-07-26T12:51:11.072Z,98528.83
2022-07-26T12:52:20.712Z,98529.19
2022-07-26T12:53:27.708Z,98529.99
2022-07-26T12:54:36.606Z,98529.71
2022-07-26T12:55:45.881Z,98532.13
2022-07-26T12:56:53.483Z,98529.86
2022-07-26T12:58:01.194Z,98534.18
2022-07-26T12:59:09.877Z,98539.89
2022-07-26T13:00:19.466Z,98541.60
2022-07-26T13:01:27.163Z,98540.98
2022-07-26T13:02:37.248Z,98544.70
2022-07-26T13:03:47.477Z,98547.48
2022-07-26T13:05:00.032Z,98547.83
2022-07-26T13:06:11.657Z,98546.80
2022-07-26T13:07:20.211Z,98549.75
2022-07-26T13:08:30.537Z,98550.17
2022-07-26T13:09:39.307Z,98551.84
2022-07-26T13:10:46.519Z,98552.05
2022-07-26T13:11:54.066Z,98553.38
2022-07-26T13:13:02.800Z,98552.32
2022-07-26T13:14:10.632Z,98552.49
2022-07-26T13:15:21.190Z,98554.33
2022-07-26T13:16:29.934Z,98554.98
2022-07-26T13:17:37.424Z,98553.96
2022-07-26T13:18:44.556Z,98553.62
2022-07-26T13:19:51.874Z,98555.03
2022-07-26T13:21:01.005Z,98559.43
2022-07-26T13:22:08.692Z,98558.42
2022-07-26T13:23:21.409Z,98555.22
2022-07-26T13:24:30.248Z,98552.72
2022-07-26T13:25:39.977Z,98560.10
2022-07-26T13:26:48.635Z,98556.02
2022-07-26T13:27:57.512Z,98559.20
2022-07-26T13:29:06.187Z,98561.54
2022-07-26T13:30:16.900Z,98559.73
2022-07-26T13:31:24.726Z,98563.45
2022-07-26T13:32:32.212Z,98565.06
2022-07-26T13:33:41.153Z,98567.36
2022-07-26T13:34:51.070Z,98564.09
2022-07-26T13:36:01.044Z,98564.71
2022-07-26T13:37:08.715Z,98566.13
2022-07-26T13:38:16.448Z,98567.02
2022-07-26T13:39:23.536Z,98568.08
2022-07-26T13:40:31.873Z,98564.97
2022-07-26T13:41:41.798Z,98564.76
2022-07-26T13:42:52.185Z,98561.63
2022-07-26T13:43:59.879Z,98563.84
2022-07-26T13:45:08.455Z,98565.59
2022-07-26T13:46:17.391Z,98571.08
2022-07-26T13:47:26.084Z,98568.20
2022-07-26T13:48:33.166Z,98567.39
2022-07-26T13:49:40.593Z,98569.41
2022-07-26T13:50:51.310Z,98570.89
2022-07-26T13:51:58.890Z,98571.89
2022-07-26T13:53:09.084Z,98572.48
2022-07-26T13:54:16.594Z,98571.38
2022-07-26T13:55:27.072Z,98572.20
2022-07-26T13:56:36.031Z,98571.89
2022-07-26T13:57:49.662Z,98573.68
2022-07-26T13:59:05.565Z,98571.80
2022-07-26T14:00:15.330Z,98573.54
2022-07-26T14:01:22.890Z,98572.96
2022-07-26T14:02:53.556Z,98573.28
2022-07-26T14:04:01.666Z,98576.52
2022-07-26T14:05:11.448Z,98577.13
2022-07-26T14:06:19.128Z,98579.34
2022-07-26T14:07:26.626Z,98579.77
2022-07-26T14:08:33.909Z,98581.34
2022-07-26T14:09:41.225Z,98579.89
2022-07-26T14:10:48.739Z,98578.38
2022-07-26T14:11:55.776Z,98575.02
2022-07-26T14:13:02.910Z,98577.83
2022-07-26T14:14:11.459Z,98579.87
2022-07-26T14:15:22.548Z,98580.73
2022-07-26T14:16:30.891Z,98579.71
2022-07-26T14:17:38.886Z,98582.13
2022-07-26T14:18:45.993Z,98582.52
2022-07-26T14:19:53.830Z,98582.64